Latest Weather Observations for Cloncurry

IDQ60801

Issued at 1:32 pm EST Tuesday 31 May 2016 (issued every 30 minutes, with the page automatically refreshed every 10 minutes)

About weather observations | Map of weather stations | Latest weather observations for QLD | Other Formats
Station Details ID: 029141 Name: CLONCURRY AIRPORT Lat: -20.67 Lon: 140.50 Height: 186.0 m
Data from the previous 72 hours. | See also: Recent months at Cloncurry
Date/Time
EST
Temp
°C
App
Temp
°C
Dew
Point
Rel
Hum
%
Delta-T
°C
Wind Press
QNH
hPa
Press
MSL
hPa
Rain
since 9 am
mm
Dir
 
Spd
km/h
Gust
km/h
Spd
kts
Gust
kts
31/01:30pm 29.1 28.1 10.3 31 10.7 SSE 6 17 3 9 1017.1 1016.4 0.0
31/01:00pm 28.4 26.6 9.6 31 10.5 ESE 9 13 5 7 1017.6 1016.9 0.0
31/12:30pm 27.7 25.4 9.0 31 10.4 ESE 11 17 6 9 1018.4 1017.7 0.0
31/12:00pm 27.4 25.4 8.8 31 10.2 ESE 9 15 5 8 1018.8 1018.1 0.0
31/11:30am 27.1 23.8 8.0 30 10.4 ESE 15 20 8 11 1019.0 1018.3 0.0
31/11:00am 26.2 22.0 5.7 27 10.6 SE 17 22 9 12 1019.4 1018.6 0.0
31/10:30am 25.8 20.4 4.3 25 10.9 SE 22 26 12 14 1019.9 1019.1 0.0
31/10:00am 25.1 19.9 3.7 25 10.6 SE 20 26 11 14 1020.1 1019.3 0.0
31/09:30am 24.3 18.2 2.5 24 10.5 SE 24 33 13 18 1020.2 1019.4 0.0
31/09:00am 22.0 18.5 5.4 34 8.3 SSE 13 17 7 9 1020.0 1019.2 0.0
31/08:30am 19.5 17.1 6.9 44 6.4 SSE 9 13 5 7 1019.6 1018.8 0.0
31/08:00am 18.5 15.3 6.7 46 5.9 SSE 13 15 7 8 1019.2 1018.4 0.0
31/07:30am 17.7 14.9 6.9 49 5.4 SSE 11 13 6 7 1018.8 1018.1 0.0
31/07:00am 17.7 15.3 6.9 49 5.4 SSE 9 11 5 6 1018.3 1017.6 0.0
31/06:30am 18.1 15.2 6.6 47 5.8 SSE 11 13 6 7 1018.0 1017.3 0.0
31/06:00am 18.9 15.3 5.0 40 6.8 SSE 13 15 7 8 1017.7 1017.0 0.0
31/05:30am 20.3 16.9 3.9 34 7.9 SSE 11 15 6 8 1017.7 1017.0 0.0
31/05:00am 20.6 16.8 3.8 33 8.1 SSE 13 15 7 8 1017.5 1016.8 0.0
31/04:30am 21.8 17.3 2.0 27 9.3 SSE 15 20 8 11 1017.4 1016.7 0.0
31/04:00am 22.6 18.0 1.6 25 9.8 SE 15 20 8 11 1017.2 1016.5 0.0
31/03:30am 22.1 18.2 3.3 29 9.1 SE 13 19 7 10 1017.2 1016.5 0.0
31/03:00am 19.8 17.1 7.5 45 6.3 SSE 11 13 6 7 1017.2 1016.5 0.0
31/02:30am 18.4 16.5 9.2 55 4.9 SSE 9 11 5 6 1017.3 1016.6 0.0
31/02:00am 19.0 17.1 8.9 52 5.3 SSE 9 11 5 6 1017.5 1016.8 0.0
31/01:30am 19.2 16.9 9.1 52 5.4 SSE 11 13 6 7 1017.4 1016.7 0.0
31/01:00am 19.5 17.3 9.4 52 5.4 SSE 11 11 6 6 1017.4 1016.7 0.0
31/12:30am 19.8 17.6 9.4 51 5.6 SSE 11 13 6 7 1017.7 1017.0 0.0
31/12:00am 20.3 18.1 9.2 49 5.9 SSE 11 15 6 8 1017.6 1016.9 0.0
 
Date/Time
EST
Temp
°C
App
Temp
°C
Dew
Point
Rel
Hum
%
Delta-T
°C
Wind Press
QNH
hPa
Press
MSL
hPa
Rain
since 9 am
mm
Dir
 
Spd
km/h
Gust
km/h
Spd
kts
Gust
kts
30/11:30pm 20.0 17.4 9.3 50 5.7 SSE 13 15 7 8 1017.4 1016.7 0.0
30/11:00pm 20.6 18.4 9.2 48 6.1 SSE 11 13 6 7 1017.4 1016.7 0.0
30/10:30pm 20.9 18.7 9.2 47 6.3 SSE 11 13 6 7 1017.2 1016.5 0.0
30/10:00pm 21.4 18.7 9.0 45 6.6 SSE 13 13 7 7 1017.4 1016.7 0.0
30/09:30pm 21.5 19.2 9.1 45 6.7 SSE 11 13 6 7 1017.5 1016.8 0.0
30/09:00pm 22.1 19.7 8.6 42 7.2 SSE 11 13 6 7 1017.3 1016.6 0.0
30/08:30pm 22.6 20.1 8.3 40 7.6 SSE 11 13 6 7 1017.3 1016.6 0.0
30/08:00pm 22.9 20.4 8.2 39 7.8 SSE 11 13 6 7 1016.9 1016.2 0.0
30/07:30pm 24.0 21.4 7.6 35 8.7 SSE 11 13 6 7 1016.5 1015.8 0.0
30/07:00pm 24.9 22.2 7.5 33 9.2 SSE 11 11 6 6 1016.1 1015.4 0.0
30/06:30pm 26.5 23.5 6.0 27 10.7 SSE 11 13 6 7 1015.8 1015.1 0.0
30/06:00pm 28.6 25.1 5.5 23 12.1 SSE 13 17 7 9 1015.7 1015.0 0.0
30/05:30pm 29.6 25.2 5.0 21 12.9 SSE 17 20 9 11 1015.6 1014.8 0.0
30/05:00pm 30.3 26.1 5.6 21 13.1 SE 17 22 9 12 1015.2 1014.4 0.0
30/04:30pm 30.8 27.3 5.3 20 13.5 ESE 13 20 7 11 1015.1 1014.3 0.0
30/04:00pm 31.1 27.4 6.2 21 13.4 ESE 15 22 8 12 1015.1 1014.3 0.0
30/03:30pm 30.8 27.4 6.0 21 13.3 E 13 22 7 12 1015.2 1014.4 0.0
30/03:00pm 30.5 27.2 4.3 19 13.6 E 11 22 6 12 1015.3 1014.5 0.0
30/02:30pm 30.7 27.0 4.4 19 13.7 E 13 20 7 11 1015.6 1014.8 0.0
30/02:00pm 29.7 25.7 2.9 18 13.5 ESE 13 24 7 13 1015.9 1015.2 0.0
30/01:30pm 29.7 26.7 2.1 17 13.8 ESE 7 15 4 8 1016.5 1015.8 0.0
30/01:00pm 28.9 24.5 0.6 16 13.6 ESE 13 20 7 11 1017.2 1016.5 0.0
30/12:30pm 28.6 23.4 0.3 16 13.6 E 17 22 9 12 1017.9 1017.2 0.0
30/12:00pm 27.9 22.7 -0.2 16 13.3 E 17 24 9 13 1018.6 1017.9 0.0
30/11:30am 27.2 22.3 -0.8 16 13.0 E 15 22 8 12 1019.2 1018.4 0.0
30/11:00am 26.3 20.9 -1.5 16 12.7 ESE 17 24 9 13 1019.4 1018.6 0.0
30/10:30am 25.5 19.7 -1.3 17 12.2 ESE 19 24 10 13 1019.7 1018.9 0.0
30/10:00am 24.6 19.2 -1.3 18 11.7 SE 17 24 9 13 1019.9 1019.1 0.0
30/09:30am 23.5 17.7 -1.4 19 11.1 ESE 19 24 10 13 1019.8 1019.0 0.0
30/09:00am 22.4 16.0 -1.6 20 10.6 SE 22 26 12 14 1019.6 1018.8 0.0
30/08:30am 21.5 16.1 -1.7 21 10.1 SE 17 24 9 13 1019.3 1018.5 0.0
30/08:00am 20.5 16.0 -0.2 25 9.2 SSE 13 20 7 11 1018.8 1018.1 0.0
30/07:30am 19.4 14.9 -0.1 27 8.6 SSE 13 17 7 9 1018.6 1017.9 0.0
30/07:00am 19.1 15.0 2.0 32 7.9 SSE 13 20 7 11 1018.2 1017.5 0.0
30/06:30am 16.7 13.9 6.8 52 4.9 SSE 11 20 6 11 1017.9 1017.2 0.0
30/06:00am 16.3 13.6 7.3 55 4.5 SSE 11 13 6 7 1017.7 1017.0 0.0
30/05:30am 16.9 14.6 7.3 53 4.8 SSE 9 11 5 6 1017.5 1016.8 0.0
30/05:00am 16.5 14.0 8.0 57 4.3 SSE 11 13 6 7 1017.4 1016.7 0.0
30/04:30am 16.8 14.3 8.2 57 4.4 SSE 11 11 6 6 1017.2 1016.5 0.0
30/04:00am 16.5 14.1 8.5 59 4.1 SSE 11 13 6 7 1017.2 1016.5 0.0
30/03:30am 16.8 14.8 8.5 58 4.3 SSE 9 11 5 6 1017.2 1016.5 0.0
30/03:00am 16.3 14.9 9.5 64 3.6 SSE 7 7 4 4 1017.2 1016.5 0.0
30/02:30am 17.4 15.6 9.3 59 4.3 SSE 9 11 5 6 1017.2 1016.5 0.0
30/02:00am 17.4 15.2 9.3 59 4.3 SSE 11 13 6 7 1017.3 1016.6 0.0
30/01:30am 18.4 16.5 8.9 54 5.0 SSE 9 11 5 6 1017.4 1016.7 0.0
30/01:00am 18.5 16.0 9.6 56 4.7 SSE 13 13 7 7 1017.4 1016.7 0.0
30/12:30am 18.2 16.2 10.3 60 4.3 SE 11 13 6 7 1017.4 1016.7 0.0
30/12:00am 18.5 17.0 10.6 60 4.3 SE 9 11 5 6 1017.6 1016.9 0.0
 
Date/Time
EST
Temp
°C
App
Temp
°C
Dew
Point
Rel
Hum
%
Delta-T
°C
Wind Press
QNH
hPa
Press
MSL
hPa
Rain
since 9 am
mm
Dir
 
Spd
km/h
Gust
km/h
Spd
kts
Gust
kts
29/11:30pm 18.8 17.2 10.1 57 4.7 SE 9 9 5 5 1017.9 1017.2 0.0
29/11:00pm 19.3 17.8 10.6 57 4.7 SE 9 9 5 5 1018.0 1017.3 0.0
29/10:30pm 19.3 17.3 10.3 56 4.9 SE 11 13 6 7 1018.0 1017.3 0.0
29/10:00pm 20.0 18.0 10.1 53 5.4 SE 11 13 6 7 1017.9 1017.2 0.0
29/09:30pm 20.1 18.3 9.4 50 5.7 SE 9 9 5 5 1017.8 1017.1 0.0
29/09:00pm 21.3 19.9 8.9 45 6.6 SE 6 7 3 4 1017.7 1017.0 0.0
29/08:30pm 22.3 20.1 7.7 39 7.7 SE 9 13 5 7 1017.7 1017.0 0.0
29/08:00pm 23.3 20.6 7.4 36 8.4 SE 11 13 6 7 1017.3 1016.6 0.0
29/07:30pm 24.0 21.1 6.7 33 9.0 SE 11 13 6 7 1017.1 1016.4 0.0
29/07:00pm 24.5 21.6 6.7 32 9.3 SSE 11 13 6 7 1016.9 1016.2 0.0
29/06:30pm 25.0 22.6 7.2 32 9.4 SSE 9 11 5 6 1016.6 1015.9 0.0
29/06:00pm 26.2 22.9 6.3 28 10.4 SSE 13 17 7 9 1016.3 1015.6 0.0
29/05:30pm 27.0 23.6 5.9 26 11.0 SSE 13 19 7 10 1015.9 1015.2 0.0
29/05:00pm 27.5 24.2 6.3 26 11.2 SSE 13 20 7 11 1015.7 1015.0 0.0
29/04:30pm 27.6 24.6 5.8 25 11.4 SSE 11 17 6 9 1015.5 1014.7 0.0
29/04:00pm 28.1 24.4 6.2 25 11.6 SSE 15 20 8 11 1015.5 1014.7 0.0
29/03:30pm 27.7 23.8 5.3 24 11.7 SSE 15 20 8 11 1015.6 1014.8 0.0
29/03:00pm 27.5 23.9 5.1 24 11.6 SSE 13 20 7 11 1015.7 1015.0 0.0
29/02:30pm 27.0 23.7 4.7 24 11.4 SSE 11 19 6 10 1015.9 1015.2 0.0
29/02:00pm 26.9 22.7 4.0 23 11.6 SSE 15 20 8 11 1016.3 1015.6 0.0
29/01:30pm 26.0 22.1 3.3 23 11.3 SSE 13 20 7 11 1016.7 1016.0 0.0
29/01:00pm 25.7 21.7 3.0 23 11.2 ESE 13 22 7 12 1017.1 1016.4 0.0
29/12:30pm 25.6 21.0 3.6 24 11.0 SE 17 24 9 13 1017.5 1016.8 0.0
29/12:00pm 24.8 20.4 2.9 24 10.7 ESE 15 20 8 11 1017.8 1017.1 0.0
29/11:30am 24.7 20.1 3.9 26 10.4 ESE 17 24 9 13 1018.2 1017.5 0.0
29/11:00am 23.9 18.7 3.8 27 9.9 ESE 20 24 11 13 1018.7 1018.0 0.0
29/10:30am 22.2 16.9 2.8 28 9.3 ESE 20 28 11 15 1019.2 1018.4 0.0
29/10:00am 21.3 15.9 2.6 29 8.8 ESE 20 28 11 15 1019.4 1018.6 0.0
29/09:30am 21.0 15.0 3.2 31 8.5 SE 24 30 13 16 1019.5 1018.7 0.0
29/09:00am 20.3 13.9 3.1 32 8.2 ESE 26 35 14 19 1019.3 1018.5 0.0
29/08:30am 19.5 14.2 2.8 33 7.8 SE 20 30 11 16 1019.0 1018.3 0.0
29/08:00am 18.7 14.4 3.3 36 7.2 ESE 15 20 8 11 1018.7 1018.0 0.0
29/07:30am 15.8 13.7 8.1 60 3.9 ESE 9 11 5 6 1018.4 1017.7 0.0
29/07:00am 15.5 13.4 8.3 62 3.7 ESE 9 11 5 6 1018.1 1017.4 0.0
29/06:30am 15.7 13.6 8.2 61 3.8 ESE 9 11 5 6 1017.8 1017.1 0.0
29/06:00am 15.6 13.6 8.8 64 3.5 ESE 9 9 5 5 1017.4 1016.7 0.0
29/05:30am 15.9 13.8 8.2 60 3.9 ESE 9 11 5 6 1017.1 1016.4 0.0
29/05:00am 15.9 13.8 8.4 61 3.8 ESE 9 11 5 6 1016.9 1016.2 0.0
29/04:30am 16.2 14.2 8.7 61 3.9 ESE 9 11 5 6 1016.8 1016.1 0.0
29/04:00am 16.4 14.0 8.6 60 4.0 ESE 11 13 6 7 1016.8 1016.1 0.0
29/03:30am 16.8 13.6 8.5 58 4.3 ESE 15 15 8 8 1016.5 1015.8 0.0
29/03:00am 16.6 14.5 9.8 64 3.6 ESE 11 13 6 7 1016.3 1015.6 0.0
29/02:30am 16.6 15.1 10.5 67 3.3 ESE 9 11 5 6 1016.4 1015.7 0.0
29/02:00am 17.0 14.9 9.9 63 3.8 ESE 11 11 6 6 1016.4 1015.7 0.0
29/01:30am 17.2 15.6 10.1 63 3.8 ESE 9 11 5 6 1016.8 1016.1 0.0
29/01:00am 17.5 15.6 10.4 63 3.8 ESE 11 13 6 7 1016.8 1016.1 0.0
29/12:30am 17.6 16.1 10.5 63 3.8 ESE 9 9 5 5 1016.8 1016.1 0.0
29/12:00am 18.3 16.2 9.9 58 4.5 ESE 11 11 6 6 1016.8 1016.1 0.0
 
Date/Time
EST
Temp
°C
App
Temp
°C
Dew
Point
Rel
Hum
%
Delta-T
°C
Wind Press
QNH
hPa
Press
MSL
hPa
Rain
since 9 am
mm
Dir
 
Spd
km/h
Gust
km/h
Spd
kts
Gust
kts
28/11:30pm 18.9 17.2 9.7 55 4.9 ESE 9 11 5 6 1017.0 1016.3 0.0
28/11:00pm 18.8 16.7 9.8 56 4.8 ESE 11 13 6 7 1017.3 1016.6 0.0
28/10:30pm 19.1 17.1 10.1 56 4.9 ESE 11 13 6 7 1017.2 1016.5 0.0
28/10:00pm 19.4 17.7 9.9 54 5.1 ESE 9 11 5 6 1017.1 1016.4 0.0
28/09:30pm 19.7 17.9 9.3 51 5.5 ESE 9 13 5 7 1017.2 1016.5 0.0
28/09:00pm 21.0 18.0 7.6 42 7.0 ESE 13 17 7 9 1017.1 1016.4 0.0
28/08:30pm 22.1 19.0 7.1 38 7.8 ESE 13 17 7 9 1016.9 1016.2 0.0
28/08:00pm 22.4 19.1 6.6 36 8.1 ESE 13 17 7 9 1016.6 1015.9 0.0
28/07:30pm 23.0 20.1 6.3 34 8.6 ESE 11 15 6 8 1016.4 1015.7 0.0
28/07:00pm 22.9 20.0 6.6 35 8.4 ESE 11 13 6 7 1016.0 1015.3 0.0
28/06:30pm 24.0 20.6 5.8 31 9.3 ESE 13 17 7 9 1015.7 1015.0 0.0
28/06:00pm 24.6 21.0 4.9 28 10.0 ESE 13 17 7 9 1015.3 1014.5 0.0
28/05:30pm 25.3 20.7 3.9 25 10.7 ESE 17 19 9 10 1015.5 1014.7 0.0
28/05:00pm 25.9 21.9 4.9 26 10.7 ESE 15 24 8 13 1015.3 1014.5 0.0
28/04:30pm 25.9 21.3 3.8 24 11.1 ESE 17 24 9 13 1015.3 1014.5 0.0
28/04:00pm 25.9 21.7 3.8 24 11.1 ESE 15 20 8 11 1015.3 1014.5 0.0
28/03:30pm 25.7 21.3 4.8 26 10.6 SE 17 24 9 13 1015.6 1014.8 0.0
28/03:00pm 25.8 21.0 4.9 26 10.7 SE 19 24 10 13 1015.8 1015.1 0.0
28/02:30pm 25.6 20.7 4.1 25 10.8 ESE 19 26 10 14 1016.1 1015.4 0.0
28/02:00pm 24.6 20.2 4.9 28 10.0 SE 17 22 9 12 1016.3 1015.6 0.0

Other Formats:

Comma delimited format used in spreadsheet applications
http://www.bom.gov.au/fwo/IDQ60801/IDQ60801.94335.axf

JavaScript Object Notation format (JSON) in row-major order
http://www.bom.gov.au/fwo/IDQ60801/IDQ60801.94335.json